sensor_id;sensor_type;location;lat;lon;timestamp;P1;durP1;ratioP1;P2;durP2;ratioP2
35074;SDS011;21260;34.984;32.490;2022-09-17T00:01:19;4.47;;;3.30;;
35074;SDS011;21260;34.984;32.490;2022-09-17T00:03:49;4.83;;;3.20;;
35074;SDS011;21260;34.984;32.490;2022-09-17T00:06:18;6.90;;;3.27;;
35074;SDS011;21260;34.984;32.490;2022-09-17T00:08:45;5.20;;;3.07;;
35074;SDS011;21260;34.984;32.490;2022-09-17T00:11:13;7.93;;;3.40;;
35074;SDS011;21260;34.984;32.490;2022-09-17T00:13:50;4.13;;;3.23;;
35074;SDS011;21260;34.984;32.490;2022-09-17T00:16:26;5.37;;;3.57;;
35074;SDS011;21260;34.984;32.490;2022-09-17T00:19:01;6.60;;;3.37;;
35074;SDS011;21260;34.984;32.490;2022-09-17T00:21:30;5.20;;;3.63;;
35074;SDS011;21260;34.984;32.490;2022-09-17T00:23:58;6.03;;;3.83;;
35074;SDS011;21260;34.984;32.490;2022-09-17T00:26:28;5.73;;;3.50;;
35074;SDS011;21260;34.984;32.490;2022-09-17T00:28:56;5.27;;;4.10;;
35074;SDS011;21260;34.984;32.490;2022-09-17T00:31:23;7.33;;;3.90;;
35074;SDS011;21260;34.984;32.490;2022-09-17T00:33:51;5.43;;;3.83;;
35074;SDS011;21260;34.984;32.490;2022-09-17T00:36:21;8.17;;;4.10;;
35074;SDS011;21260;34.984;32.490;2022-09-17T00:38:51;5.57;;;3.43;;
35074;SDS011;21260;34.984;32.490;2022-09-17T00:41:20;4.93;;;3.40;;
35074;SDS011;21260;34.984;32.490;2022-09-17T00:43:55;6.90;;;3.93;;
35074;SDS011;21260;34.984;32.490;2022-09-17T00:46:46;5.70;;;4.07;;
35074;SDS011;21260;34.984;32.490;2022-09-17T00:49:19;5.67;;;4.00;;
35074;SDS011;21260;34.984;32.490;2022-09-17T00:54:24;4.37;;;3.97;;
35074;SDS011;21260;34.984;32.490;2022-09-17T00:56:51;7.73;;;4.30;;
35074;SDS011;21260;34.984;32.490;2022-09-17T00:59:19;8.10;;;4.47;;
35074;SDS011;21260;34.984;32.490;2022-09-17T01:01:49;7.93;;;4.00;;
35074;SDS011;21260;34.984;32.490;2022-09-17T01:04:17;6.30;;;4.20;;
35074;SDS011;21260;34.984;32.490;2022-09-17T01:06:49;5.60;;;4.43;;
35074;SDS011;21260;34.984;32.490;2022-09-17T01:09:45;6.30;;;4.50;;
35074;SDS011;21260;34.984;32.490;2022-09-17T01:15:33;8.10;;;4.40;;
35074;SDS011;21260;34.984;32.490;2022-09-17T01:21:15;4.03;;;3.63;;
35074;SDS011;21260;34.984;32.490;2022-09-17T01:31:01;5.33;;;3.27;;
35074;SDS011;21260;34.984;32.490;2022-09-17T01:42:35;4.80;;;3.53;;
35074;SDS011;21260;34.984;32.490;2022-09-17T01:45:16;5.00;;;3.23;;
35074;SDS011;21260;34.984;32.490;2022-09-17T01:50:30;8.07;;;3.87;;
35074;SDS011;21260;34.984;32.490;2022-09-17T01:53:04;5.93;;;3.40;;
35074;SDS011;21260;34.984;32.490;2022-09-17T01:55:35;3.70;;;3.37;;
35074;SDS011;21260;34.984;32.490;2022-09-17T01:58:09;7.50;;;3.47;;
35074;SDS011;21260;34.984;32.490;2022-09-17T02:00:57;5.03;;;2.90;;
35074;SDS011;21260;34.984;32.490;2022-09-17T02:03:33;7.23;;;2.93;;
35074;SDS011;21260;34.984;32.490;2022-09-17T02:06:37;5.37;;;3.20;;
35074;SDS011;21260;34.984;32.490;2022-09-17T02:09:12;4.83;;;3.10;;
35074;SDS011;21260;34.984;32.490;2022-09-17T02:12:14;6.00;;;2.93;;
35074;SDS011;21260;34.984;32.490;2022-09-17T02:14:53;7.57;;;3.60;;
35074;SDS011;21260;34.984;32.490;2022-09-17T02:17:43;5.40;;;3.30;;
35074;SDS011;21260;34.984;32.490;2022-09-17T02:21:10;4.47;;;3.13;;
35074;SDS011;21260;34.984;32.490;2022-09-17T02:23:54;7.20;;;2.87;;
35074;SDS011;21260;34.984;32.490;2022-09-17T02:26:25;3.87;;;2.97;;
35074;SDS011;21260;34.984;32.490;2022-09-17T02:28:54;3.00;;;2.47;;
35074;SDS011;21260;34.984;32.490;2022-09-17T02:31:29;3.33;;;2.90;;
35074;SDS011;21260;34.984;32.490;2022-09-17T02:33:58;3.67;;;2.90;;
35074;SDS011;21260;34.984;32.490;2022-09-17T02:36:29;7.67;;;2.60;;
35074;SDS011;21260;34.984;32.490;2022-09-17T02:39:00;3.87;;;2.60;;
35074;SDS011;21260;34.984;32.490;2022-09-17T02:41:35;4.80;;;2.83;;
35074;SDS011;21260;34.984;32.490;2022-09-17T02:47:33;4.93;;;2.53;;
35074;SDS011;21260;34.984;32.490;2022-09-17T02:56:39;3.90;;;2.60;;
35074;SDS011;21260;34.984;32.490;2022-09-17T02:59:17;6.83;;;2.73;;
35074;SDS011;21260;34.984;32.490;2022-09-17T03:05:01;4.97;;;2.80;;
35074;SDS011;21260;34.984;32.490;2022-09-17T03:07:30;4.80;;;2.37;;
35074;SDS011;21260;34.984;32.490;2022-09-17T03:09:57;4.13;;;2.50;;
35074;SDS011;21260;34.984;32.490;2022-09-17T03:12:24;7.47;;;2.57;;
35074;SDS011;21260;34.984;32.490;2022-09-17T03:14:51;4.93;;;2.60;;
35074;SDS011;21260;34.984;32.490;2022-09-17T03:17:17;6.07;;;2.73;;
35074;SDS011;21260;34.984;32.490;2022-09-17T03:19:44;5.63;;;2.43;;
35074;SDS011;21260;34.984;32.490;2022-09-17T03:22:10;4.20;;;2.60;;
35074;SDS011;21260;34.984;32.490;2022-09-17T03:24:37;3.47;;;2.20;;
35074;SDS011;21260;34.984;32.490;2022-09-17T03:27:03;5.67;;;2.70;;
35074;SDS011;21260;34.984;32.490;2022-09-17T03:29:30;5.57;;;2.80;;
35074;SDS011;21260;34.984;32.490;2022-09-17T03:31:58;3.77;;;2.70;;
35074;SDS011;21260;34.984;32.490;2022-09-17T03:34:25;4.20;;;2.43;;
35074;SDS011;21260;34.984;32.490;2022-09-17T03:36:51;4.77;;;2.37;;
35074;SDS011;21260;34.984;32.490;2022-09-17T03:39:17;3.73;;;2.50;;
35074;SDS011;21260;34.984;32.490;2022-09-17T03:41:44;4.47;;;2.53;;
35074;SDS011;21260;34.984;32.490;2022-09-17T03:44:10;4.40;;;2.50;;
35074;SDS011;21260;34.984;32.490;2022-09-17T03:46:40;7.83;;;2.50;;
35074;SDS011;21260;34.984;32.490;2022-09-17T03:49:06;2.90;;;2.37;;
35074;SDS011;21260;34.984;32.490;2022-09-17T03:51:33;3.83;;;2.63;;
35074;SDS011;21260;34.984;32.490;2022-09-17T03:53:59;3.17;;;2.30;;
35074;SDS011;21260;34.984;32.490;2022-09-17T03:56:28;6.40;;;2.47;;
35074;SDS011;21260;34.984;32.490;2022-09-17T03:58:57;3.77;;;2.50;;
35074;SDS011;21260;34.984;32.490;2022-09-17T04:01:25;5.63;;;2.50;;
35074;SDS011;21260;34.984;32.490;2022-09-17T04:03:53;6.20;;;2.40;;
35074;SDS011;21260;34.984;32.490;2022-09-17T04:06:20;5.87;;;2.50;;
35074;SDS011;21260;34.984;32.490;2022-09-17T04:08:46;9.77;;;2.77;;
35074;SDS011;21260;34.984;32.490;2022-09-17T04:11:12;6.40;;;2.73;;
35074;SDS011;21260;34.984;32.490;2022-09-17T04:13:40;3.47;;;2.43;;
35074;SDS011;21260;34.984;32.490;2022-09-17T04:16:06;5.17;;;2.40;;
35074;SDS011;21260;34.984;32.490;2022-09-17T04:18:32;6.43;;;2.40;;
35074;SDS011;21260;34.984;32.490;2022-09-17T04:20:59;6.67;;;2.57;;
35074;SDS011;21260;34.984;32.490;2022-09-17T04:23:25;7.20;;;2.60;;
35074;SDS011;21260;34.984;32.490;2022-09-17T04:25:53;5.27;;;2.50;;
35074;SDS011;21260;34.984;32.490;2022-09-17T04:28:19;5.50;;;2.60;;
35074;SDS011;21260;34.984;32.490;2022-09-17T04:30:46;4.73;;;2.70;;
35074;SDS011;21260;34.984;32.490;2022-09-17T04:33:13;4.43;;;2.63;;
35074;SDS011;21260;34.984;32.490;2022-09-17T04:35:40;3.83;;;2.53;;
35074;SDS011;21260;34.984;32.490;2022-09-17T04:38:06;5.40;;;2.40;;
35074;SDS011;21260;34.984;32.490;2022-09-17T04:40:34;3.27;;;2.40;;
35074;SDS011;21260;34.984;32.490;2022-09-17T04:43:01;6.40;;;2.80;;
35074;SDS011;21260;34.984;32.490;2022-09-17T04:45:29;4.33;;;2.47;;
35074;SDS011;21260;34.984;32.490;2022-09-17T04:47:57;4.70;;;2.40;;
35074;SDS011;21260;34.984;32.490;2022-09-17T04:50:24;3.80;;;2.50;;
35074;SDS011;21260;34.984;32.490;2022-09-17T04:52:50;6.73;;;2.67;;
35074;SDS011;21260;34.984;32.490;2022-09-17T04:55:16;6.00;;;2.50;;
35074;SDS011;21260;34.984;32.490;2022-09-17T04:57:49;5.63;;;2.60;;
35074;SDS011;21260;34.984;32.490;2022-09-17T05:00:19;2.53;;;2.20;;
35074;SDS011;21260;34.984;32.490;2022-09-17T05:02:48;3.40;;;2.00;;
35074;SDS011;21260;34.984;32.490;2022-09-17T05:05:17;7.73;;;2.20;;
35074;SDS011;21260;34.984;32.490;2022-09-17T05:07:46;4.27;;;2.20;;
35074;SDS011;21260;34.984;32.490;2022-09-17T05:10:13;4.13;;;2.30;;
35074;SDS011;21260;34.984;32.490;2022-09-17T05:12:46;2.87;;;2.20;;
35074;SDS011;21260;34.984;32.490;2022-09-17T05:15:16;3.83;;;2.13;;
35074;SDS011;21260;34.984;32.490;2022-09-17T05:17:43;4.93;;;1.93;;
35074;SDS011;21260;34.984;32.490;2022-09-17T05:20:10;5.43;;;2.30;;
35074;SDS011;21260;34.984;32.490;2022-09-17T05:22:45;5.27;;;2.30;;
35074;SDS011;21260;34.984;32.490;2022-09-17T05:25:14;4.15;;;2.33;;
35074;SDS011;21260;34.984;32.490;2022-09-17T05:27:43;2.97;;;2.17;;
35074;SDS011;21260;34.984;32.490;2022-09-17T05:30:10;5.25;;;2.47;;
35074;SDS011;21260;34.984;32.490;2022-09-17T05:32:37;5.07;;;2.85;;
35074;SDS011;21260;34.984;32.490;2022-09-17T05:35:04;5.13;;;2.40;;
35074;SDS011;21260;34.984;32.490;2022-09-17T05:37:32;3.78;;;2.20;;
35074;SDS011;21260;34.984;32.490;2022-09-17T05:39:59;2.42;;;2.03;;
35074;SDS011;21260;34.984;32.490;2022-09-17T05:42:25;6.65;;;2.28;;
35074;SDS011;21260;34.984;32.490;2022-09-17T05:44:52;4.80;;;2.30;;
35074;SDS011;21260;34.984;32.490;2022-09-17T05:47:18;5.05;;;2.53;;
35074;SDS011;21260;34.984;32.490;2022-09-17T05:49:44;5.03;;;2.72;;
35074;SDS011;21260;34.984;32.490;2022-09-17T05:52:11;4.68;;;2.45;;
35074;SDS011;21260;34.984;32.490;2022-09-17T05:54:38;4.05;;;2.00;;
35074;SDS011;21260;34.984;32.490;2022-09-17T05:57:04;8.90;;;2.42;;
35074;SDS011;21260;34.984;32.490;2022-09-17T05:59:30;6.15;;;2.35;;
35074;SDS011;21260;34.984;32.490;2022-09-17T06:01:57;3.50;;;2.42;;
35074;SDS011;21260;34.984;32.490;2022-09-17T06:04:24;6.50;;;2.58;;
35074;SDS011;21260;34.984;32.490;2022-09-17T06:06:51;5.50;;;2.72;;
35074;SDS011;21260;34.984;32.490;2022-09-17T06:09:17;6.15;;;2.58;;
35074;SDS011;21260;34.984;32.490;2022-09-17T06:11:43;3.50;;;2.40;;
35074;SDS011;21260;34.984;32.490;2022-09-17T06:14:09;5.00;;;2.30;;
35074;SDS011;21260;34.984;32.490;2022-09-17T06:16:36;5.35;;;2.80;;
35074;SDS011;21260;34.984;32.490;2022-09-17T06:19:03;2.95;;;2.47;;
35074;SDS011;21260;34.984;32.490;2022-09-17T06:21:29;2.65;;;2.33;;
35074;SDS011;21260;34.984;32.490;2022-09-17T06:23:55;4.35;;;2.40;;
35074;SDS011;21260;34.984;32.490;2022-09-17T06:26:23;6.05;;;2.50;;
35074;SDS011;21260;34.984;32.490;2022-09-17T06:28:49;3.97;;;2.45;;
35074;SDS011;21260;34.984;32.490;2022-09-17T06:31:16;4.20;;;2.75;;
35074;SDS011;21260;34.984;32.490;2022-09-17T06:33:42;7.50;;;2.70;;
35074;SDS011;21260;34.984;32.490;2022-09-17T06:36:09;8.30;;;2.80;;
35074;SDS011;21260;34.984;32.490;2022-09-17T06:38:36;7.07;;;2.75;;
35074;SDS011;21260;34.984;32.490;2022-09-17T06:41:03;5.05;;;2.60;;
35074;SDS011;21260;34.984;32.490;2022-09-17T06:43:29;4.53;;;2.35;;
35074;SDS011;21260;34.984;32.490;2022-09-17T06:46:01;9.65;;;2.70;;
35074;SDS011;21260;34.984;32.490;2022-09-17T06:48:33;3.42;;;2.33;;
35074;SDS011;21260;34.984;32.490;2022-09-17T06:51:02;6.10;;;2.78;;
35074;SDS011;21260;34.984;32.490;2022-09-17T06:53:35;8.77;;;2.88;;
35074;SDS011;21260;34.984;32.490;2022-09-17T06:56:05;5.38;;;2.75;;
35074;SDS011;21260;34.984;32.490;2022-09-17T06:58:34;7.72;;;2.45;;
35074;SDS011;21260;34.984;32.490;2022-09-17T07:01:08;5.50;;;2.65;;
35074;SDS011;21260;34.984;32.490;2022-09-17T07:03:36;6.60;;;2.75;;
35074;SDS011;21260;34.984;32.490;2022-09-17T07:06:03;15.30;;;2.83;;
35074;SDS011;21260;34.984;32.490;2022-09-17T07:08:34;7.72;;;2.90;;
35074;SDS011;21260;34.984;32.490;2022-09-17T07:11:01;7.82;;;2.70;;
35074;SDS011;21260;34.984;32.490;2022-09-17T07:13:27;2.85;;;2.40;;
35074;SDS011;21260;34.984;32.490;2022-09-17T07:15:54;4.25;;;2.38;;
35074;SDS011;21260;34.984;32.490;2022-09-17T07:18:23;3.55;;;2.10;;
35074;SDS011;21260;34.984;32.490;2022-09-17T07:20:51;3.83;;;2.10;;
35074;SDS011;21260;34.984;32.490;2022-09-17T07:23:20;4.68;;;2.47;;
35074;SDS011;21260;34.984;32.490;2022-09-17T07:25:52;4.55;;;2.10;;
35074;SDS011;21260;34.984;32.490;2022-09-17T07:28:20;4.00;;;2.38;;
35074;SDS011;21260;34.984;32.490;2022-09-17T07:30:48;7.22;;;2.63;;
35074;SDS011;21260;34.984;32.490;2022-09-17T07:33:16;10.20;;;2.65;;
35074;SDS011;21260;34.984;32.490;2022-09-17T07:35:54;7.95;;;2.75;;
35074;SDS011;21260;34.984;32.490;2022-09-17T07:38:32;8.18;;;2.53;;
35074;SDS011;21260;34.984;32.490;2022-09-17T07:41:00;10.32;;;2.80;;
35074;SDS011;21260;34.984;32.490;2022-09-17T07:43:35;11.35;;;2.80;;
35074;SDS011;21260;34.984;32.490;2022-09-17T07:46:02;5.85;;;2.78;;
35074;SDS011;21260;34.984;32.490;2022-09-17T07:48:31;8.00;;;2.92;;
35074;SDS011;21260;34.984;32.490;2022-09-17T07:50:58;5.20;;;3.25;;
35074;SDS011;21260;34.984;32.490;2022-09-17T07:53:25;10.05;;;2.92;;
35074;SDS011;21260;34.984;32.490;2022-09-17T07:55:52;9.20;;;3.10;;
35074;SDS011;21260;34.984;32.490;2022-09-17T07:58:22;8.07;;;2.90;;
35074;SDS011;21260;34.984;32.490;2022-09-17T08:01:05;5.72;;;2.83;;
35074;SDS011;21260;34.984;32.490;2022-09-17T08:03:35;5.90;;;3.03;;
35074;SDS011;21260;34.984;32.490;2022-09-17T08:06:07;6.78;;;2.63;;
35074;SDS011;21260;34.984;32.490;2022-09-17T08:08:37;9.85;;;3.65;;
35074;SDS011;21260;34.984;32.490;2022-09-17T08:11:05;9.80;;;4.20;;
35074;SDS011;21260;34.984;32.490;2022-09-17T08:13:41;6.97;;;3.40;;
35074;SDS011;21260;34.984;32.490;2022-09-17T08:16:11;9.13;;;3.67;;
35074;SDS011;21260;34.984;32.490;2022-09-17T08:18:37;7.78;;;4.20;;
35074;SDS011;21260;34.984;32.490;2022-09-17T08:21:05;10.73;;;4.63;;
35074;SDS011;21260;34.984;32.490;2022-09-17T08:23:35;9.90;;;3.92;;
35074;SDS011;21260;34.984;32.490;2022-09-17T08:26:03;9.88;;;3.78;;
35074;SDS011;21260;34.984;32.490;2022-09-17T08:28:34;8.75;;;4.50;;
35074;SDS011;21260;34.984;32.490;2022-09-17T08:31:01;5.28;;;3.60;;
35074;SDS011;21260;34.984;32.490;2022-09-17T08:33:33;8.05;;;4.00;;
35074;SDS011;21260;34.984;32.490;2022-09-17T08:36:03;12.00;;;4.32;;
35074;SDS011;21260;34.984;32.490;2022-09-17T08:38:33;7.70;;;4.20;;
35074;SDS011;21260;34.984;32.490;2022-09-17T08:46:48;10.20;;;4.45;;
35074;SDS011;21260;34.984;32.490;2022-09-17T08:52:25;8.80;;;4.22;;
35074;SDS011;21260;34.984;32.490;2022-09-17T08:57:54;4.68;;;4.10;;
35074;SDS011;21260;34.984;32.490;2022-09-17T09:00:46;9.05;;;4.35;;
35074;SDS011;21260;34.984;32.490;2022-09-17T09:06:52;9.05;;;4.07;;
35074;SDS011;21260;34.984;32.490;2022-09-17T09:09:48;5.05;;;3.95;;
35074;SDS011;21260;34.984;32.490;2022-09-17T09:12:31;10.57;;;3.67;;
35074;SDS011;21260;34.984;32.490;2022-09-17T09:15:02;5.85;;;3.30;;
35074;SDS011;21260;34.984;32.490;2022-09-17T09:17:43;6.20;;;3.97;;
35074;SDS011;21260;34.984;32.490;2022-09-17T09:20:27;11.50;;;3.80;;
35074;SDS011;21260;34.984;32.490;2022-09-17T09:23:39;11.40;;;4.93;;
35074;SDS011;21260;34.984;32.490;2022-09-17T09:26:40;6.13;;;4.35;;
35074;SDS011;21260;34.984;32.490;2022-09-17T09:35:38;9.90;;;4.75;;
35074;SDS011;21260;34.984;32.490;2022-09-17T09:44:06;5.30;;;4.30;;
35074;SDS011;21260;34.984;32.490;2022-09-17T09:47:00;11.60;;;4.78;;
35074;SDS011;21260;34.984;32.490;2022-09-17T09:56:01;4.82;;;3.97;;
35074;SDS011;21260;34.984;32.490;2022-09-17T09:58:57;10.80;;;4.25;;
35074;SDS011;21260;34.984;32.490;2022-09-17T10:01:26;9.15;;;4.10;;
35074;SDS011;21260;34.984;32.490;2022-09-17T10:03:56;11.50;;;4.07;;
35074;SDS011;21260;34.984;32.490;2022-09-17T10:06:23;4.55;;;4.15;;
35074;SDS011;21260;34.984;32.490;2022-09-17T10:11:23;9.43;;;3.83;;
35074;SDS011;21260;34.984;32.490;2022-09-17T10:22:33;6.35;;;3.50;;
35074;SDS011;21260;34.984;32.490;2022-09-17T10:25:04;7.28;;;3.47;;
35074;SDS011;21260;34.984;32.490;2022-09-17T10:27:49;12.30;;;3.58;;
35074;SDS011;21260;34.984;32.490;2022-09-17T10:30:16;5.82;;;3.17;;
35074;SDS011;21260;34.984;32.490;2022-09-17T10:36:33;4.35;;;3.08;;
35074;SDS011;21260;34.984;32.490;2022-09-17T10:38:42;5.65;;;2.75;;
35074;SDS011;21260;34.984;32.490;2022-09-17T10:41:29;6.40;;;3.30;;
35074;SDS011;21260;34.984;32.490;2022-09-17T10:43:55;11.88;;;3.35;;
35074;SDS011;21260;34.984;32.490;2022-09-17T10:46:42;8.93;;;3.50;;
35074;SDS011;21260;34.984;32.490;2022-09-17T11:00:51;4.63;;;3.00;;
35074;SDS011;21260;34.984;32.490;2022-09-17T11:07:15;5.82;;;2.83;;
35074;SDS011;21260;34.984;32.490;2022-09-17T11:10:07;3.92;;;2.58;;
35074;SDS011;21260;34.984;32.490;2022-09-17T11:13:00;5.85;;;2.65;;
35074;SDS011;21260;34.984;32.490;2022-09-17T11:18:35;4.22;;;2.30;;
35074;SDS011;21260;34.984;32.490;2022-09-17T11:21:42;8.40;;;2.50;;
35074;SDS011;21260;34.984;32.490;2022-09-17T11:24:28;4.75;;;2.50;;
35074;SDS011;21260;34.984;32.490;2022-09-17T11:27:22;4.22;;;2.60;;
35074;SDS011;21260;34.984;32.490;2022-09-17T11:35:40;4.50;;;2.40;;
35074;SDS011;21260;34.984;32.490;2022-09-17T11:38:36;8.48;;;3.17;;
35074;SDS011;21260;34.984;32.490;2022-09-17T11:41:15;4.93;;;2.30;;
35074;SDS011;21260;34.984;32.490;2022-09-17T11:44:07;4.75;;;2.20;;
35074;SDS011;21260;34.984;32.490;2022-09-17T11:46:45;12.23;;;2.60;;
35074;SDS011;21260;34.984;32.490;2022-09-17T11:49:37;7.78;;;2.92;;
35074;SDS011;21260;34.984;32.490;2022-09-17T11:52:25;11.57;;;2.83;;
35074;SDS011;21260;34.984;32.490;2022-09-17T11:58:13;7.55;;;2.38;;
35074;SDS011;21260;34.984;32.490;2022-09-17T12:01:20;4.22;;;2.30;;
35074;SDS011;21260;34.984;32.490;2022-09-17T12:07:31;9.65;;;2.20;;
35074;SDS011;21260;34.984;32.490;2022-09-17T12:13:12;8.57;;;2.70;;
35074;SDS011;21260;34.984;32.490;2022-09-17T12:16:09;9.95;;;2.60;;
35074;SDS011;21260;34.984;32.490;2022-09-17T12:22:36;4.32;;;2.40;;
35074;SDS011;21260;34.984;32.490;2022-09-17T12:24:46;9.18;;;2.63;;
35074;SDS011;21260;34.984;32.490;2022-09-17T12:30:35;7.80;;;2.53;;
35074;SDS011;21260;34.984;32.490;2022-09-17T12:39:30;5.68;;;2.47;;
35074;SDS011;21260;34.984;32.490;2022-09-17T12:42:21;7.78;;;2.50;;
35074;SDS011;21260;34.984;32.490;2022-09-17T12:54:53;6.57;;;2.40;;
35074;SDS011;21260;34.984;32.490;2022-09-17T12:58:05;7.28;;;2.70;;
35074;SDS011;21260;34.984;32.490;2022-09-17T13:01:02;9.43;;;2.75;;
35074;SDS011;21260;34.984;32.490;2022-09-17T13:18:07;4.75;;;2.70;;
35074;SDS011;21260;34.984;32.490;2022-09-17T13:23:38;8.25;;;2.42;;
35074;SDS011;21260;34.984;32.490;2022-09-17T13:26:14;4.22;;;2.47;;
35074;SDS011;21260;34.984;32.490;2022-09-17T13:28:48;10.13;;;2.70;;
35074;SDS011;21260;34.984;32.490;2022-09-17T13:45:03;3.38;;;2.40;;
35074;SDS011;21260;34.984;32.490;2022-09-17T13:47:39;9.60;;;2.67;;
35074;SDS011;21260;34.984;32.490;2022-09-17T13:50:33;9.15;;;3.08;;
35074;SDS011;21260;34.984;32.490;2022-09-17T14:13:49;8.55;;;2.67;;
35074;SDS011;21260;34.984;32.490;2022-09-17T14:16:31;10.48;;;2.50;;
35074;SDS011;21260;34.984;32.490;2022-09-17T14:19:28;5.65;;;2.40;;
35074;SDS011;21260;34.984;32.490;2022-09-17T14:24:38;6.95;;;2.63;;
35074;SDS011;21260;34.984;32.490;2022-09-17T14:35:36;8.52;;;2.58;;
35074;SDS011;21260;34.984;32.490;2022-09-17T14:38:41;5.07;;;2.30;;
35074;SDS011;21260;34.984;32.490;2022-09-17T14:43:55;7.60;;;3.00;;
35074;SDS011;21260;34.984;32.490;2022-09-17T14:46:54;3.83;;;2.50;;
35074;SDS011;21260;34.984;32.490;2022-09-17T14:49:29;6.97;;;2.72;;
35074;SDS011;21260;34.984;32.490;2022-09-17T14:52:00;6.43;;;2.90;;
35074;SDS011;21260;34.984;32.490;2022-09-17T14:54:43;8.93;;;2.63;;
35074;SDS011;21260;34.984;32.490;2022-09-17T14:57:28;13.45;;;3.15;;
35074;SDS011;21260;34.984;32.490;2022-09-17T14:59:58;10.15;;;3.10;;
35074;SDS011;21260;34.984;32.490;2022-09-17T15:02:36;8.00;;;2.78;;
35074;SDS011;21260;34.984;32.490;2022-09-17T15:11:14;5.72;;;2.95;;
35074;SDS011;21260;34.984;32.490;2022-09-17T15:13:49;10.82;;;2.78;;
35074;SDS011;21260;34.984;32.490;2022-09-17T15:16:25;6.18;;;2.97;;
35074;SDS011;21260;34.984;32.490;2022-09-17T15:18:58;5.47;;;2.90;;
35074;SDS011;21260;34.984;32.490;2022-09-17T15:24:12;6.35;;;3.00;;
35074;SDS011;21260;34.984;32.490;2022-09-17T15:27:12;6.63;;;3.15;;
35074;SDS011;21260;34.984;32.490;2022-09-17T15:29:53;3.95;;;3.17;;
35074;SDS011;21260;34.984;32.490;2022-09-17T15:32:57;6.10;;;3.10;;
35074;SDS011;21260;34.984;32.490;2022-09-17T15:37:55;6.68;;;3.33;;
35074;SDS011;21260;34.984;32.490;2022-09-17T15:40:29;6.45;;;3.47;;
35074;SDS011;21260;34.984;32.490;2022-09-17T15:43:46;5.43;;;3.50;;
35074;SDS011;21260;34.984;32.490;2022-09-17T15:45:56;8.40;;;3.47;;
35074;SDS011;21260;34.984;32.490;2022-09-17T15:48:42;6.85;;;3.83;;
35074;SDS011;21260;34.984;32.490;2022-09-17T15:51:20;11.60;;;3.92;;
35074;SDS011;21260;34.984;32.490;2022-09-17T15:54:05;7.53;;;4.13;;
35074;SDS011;21260;34.984;32.490;2022-09-17T15:56:58;14.63;;;4.00;;
35074;SDS011;21260;34.984;32.490;2022-09-17T15:59:30;6.72;;;3.58;;
35074;SDS011;21260;34.984;32.490;2022-09-17T16:01:59;10.05;;;4.40;;
35074;SDS011;21260;34.984;32.490;2022-09-17T16:04:31;7.45;;;4.00;;
35074;SDS011;21260;34.984;32.490;2022-09-17T16:07:00;6.60;;;3.85;;
35074;SDS011;21260;34.984;32.490;2022-09-17T16:09:53;9.73;;;3.83;;
35074;SDS011;21260;34.984;32.490;2022-09-17T16:12:24;15.52;;;4.30;;
35074;SDS011;21260;34.984;32.490;2022-09-17T16:14:53;7.50;;;4.32;;
35074;SDS011;21260;34.984;32.490;2022-09-17T16:17:28;11.40;;;4.40;;
35074;SDS011;21260;34.984;32.490;2022-09-17T16:22:47;7.13;;;4.40;;
35074;SDS011;21260;34.984;32.490;2022-09-17T16:25:18;10.38;;;4.43;;
35074;SDS011;21260;34.984;32.490;2022-09-17T16:27:53;8.60;;;4.70;;
35074;SDS011;21260;34.984;32.490;2022-09-17T16:30:28;8.25;;;4.38;;
35074;SDS011;21260;34.984;32.490;2022-09-17T16:32:55;6.75;;;4.30;;
35074;SDS011;21260;34.984;32.490;2022-09-17T16:35:22;6.90;;;4.28;;
35074;SDS011;21260;34.984;32.490;2022-09-17T16:37:51;6.55;;;4.25;;
35074;SDS011;21260;34.984;32.490;2022-09-17T16:40:21;8.23;;;4.38;;
35074;SDS011;21260;34.984;32.490;2022-09-17T16:42:49;10.27;;;4.35;;
35074;SDS011;21260;34.984;32.490;2022-09-17T16:45:16;10.52;;;4.90;;
35074;SDS011;21260;34.984;32.490;2022-09-17T16:47:44;10.30;;;5.55;;
35074;SDS011;21260;34.984;32.490;2022-09-17T16:50:12;12.43;;;5.40;;
35074;SDS011;21260;34.984;32.490;2022-09-17T16:52:43;5.38;;;4.65;;
35074;SDS011;21260;34.984;32.490;2022-09-17T16:55:12;6.47;;;4.90;;
35074;SDS011;21260;34.984;32.490;2022-09-17T16:57:42;10.95;;;5.60;;
35074;SDS011;21260;34.984;32.490;2022-09-17T17:00:09;9.70;;;5.13;;
35074;SDS011;21260;34.984;32.490;2022-09-17T17:02:41;7.63;;;4.63;;
35074;SDS011;21260;34.984;32.490;2022-09-17T17:05:09;10.68;;;5.30;;
35074;SDS011;21260;34.984;32.490;2022-09-17T17:07:35;9.02;;;4.65;;
35074;SDS011;21260;34.984;32.490;2022-09-17T17:10:03;8.45;;;5.43;;
35074;SDS011;21260;34.984;32.490;2022-09-17T17:12:33;8.65;;;5.05;;
35074;SDS011;21260;34.984;32.490;2022-09-17T17:15:01;10.52;;;5.38;;
35074;SDS011;21260;34.984;32.490;2022-09-17T17:17:30;11.95;;;5.30;;
35074;SDS011;21260;34.984;32.490;2022-09-17T17:19:59;10.32;;;5.28;;
35074;SDS011;21260;34.984;32.490;2022-09-17T17:22:35;7.18;;;4.85;;
35074;SDS011;21260;34.984;32.490;2022-09-17T17:25:03;9.40;;;5.35;;
35074;SDS011;21260;34.984;32.490;2022-09-17T17:27:31;8.80;;;5.45;;
35074;SDS011;21260;34.984;32.490;2022-09-17T17:29:59;8.52;;;5.78;;
35074;SDS011;21260;34.984;32.490;2022-09-17T17:32:29;7.20;;;5.28;;
35074;SDS011;21260;34.984;32.490;2022-09-17T17:34:56;8.38;;;5.43;;
35074;SDS011;21260;34.984;32.490;2022-09-17T17:37:23;11.38;;;5.80;;
35074;SDS011;21260;34.984;32.490;2022-09-17T17:39:51;8.88;;;5.63;;
35074;SDS011;21260;34.984;32.490;2022-09-17T17:42:18;6.47;;;5.15;;
35074;SDS011;21260;34.984;32.490;2022-09-17T17:44:45;7.07;;;5.50;;
35074;SDS011;21260;34.984;32.490;2022-09-17T17:47:13;8.35;;;5.63;;
35074;SDS011;21260;34.984;32.490;2022-09-17T17:49:44;10.38;;;5.93;;
35074;SDS011;21260;34.984;32.490;2022-09-17T17:52:13;7.35;;;5.72;;
35074;SDS011;21260;34.984;32.490;2022-09-17T17:54:39;7.88;;;5.78;;
35074;SDS011;21260;34.984;32.490;2022-09-17T17:57:05;8.40;;;5.22;;
35074;SDS011;21260;34.984;32.490;2022-09-17T17:59:32;11.00;;;6.40;;
35074;SDS011;21260;34.984;32.490;2022-09-17T18:01:59;6.90;;;5.63;;
35074;SDS011;21260;34.984;32.490;2022-09-17T18:04:26;8.25;;;6.40;;
35074;SDS011;21260;34.984;32.490;2022-09-17T18:06:52;16.58;;;6.47;;
35074;SDS011;21260;34.984;32.490;2022-09-17T18:09:18;20.90;;;7.10;;
35074;SDS011;21260;34.984;32.490;2022-09-17T18:11:45;12.18;;;7.10;;
35074;SDS011;21260;34.984;32.490;2022-09-17T18:14:12;9.23;;;6.63;;
35074;SDS011;21260;34.984;32.490;2022-09-17T18:16:39;8.20;;;6.38;;
35074;SDS011;21260;34.984;32.490;2022-09-17T18:19:05;8.00;;;7.03;;
35074;SDS011;21260;34.984;32.490;2022-09-17T18:21:35;10.82;;;6.60;;
35074;SDS011;21260;34.984;32.490;2022-09-17T18:24:03;11.25;;;6.95;;
35074;SDS011;21260;34.984;32.490;2022-09-17T18:26:30;8.77;;;6.68;;
35074;SDS011;21260;34.984;32.490;2022-09-17T18:28:58;11.50;;;6.95;;
35074;SDS011;21260;34.984;32.490;2022-09-17T18:31:30;9.35;;;6.97;;
35074;SDS011;21260;34.984;32.490;2022-09-17T18:34:00;8.77;;;6.50;;
35074;SDS011;21260;34.984;32.490;2022-09-17T18:36:29;9.98;;;7.03;;
35074;SDS011;21260;34.984;32.490;2022-09-17T18:39:00;10.93;;;6.97;;
35074;SDS011;21260;34.984;32.490;2022-09-17T18:41:31;11.30;;;6.97;;
35074;SDS011;21260;34.984;32.490;2022-09-17T18:44:05;7.05;;;6.20;;
35074;SDS011;21260;34.984;32.490;2022-09-17T18:46:39;11.07;;;6.43;;
35074;SDS011;21260;34.984;32.490;2022-09-17T18:49:10;8.00;;;6.10;;
35074;SDS011;21260;34.984;32.490;2022-09-17T18:51:37;7.47;;;6.65;;
35074;SDS011;21260;34.984;32.490;2022-09-17T18:54:17;7.47;;;6.68;;